Leo Star I — ELXC6 — position and weather

sailwx.info

Track history (hours):
 
Tides and Currents Weather Stations Pressure Air Temp Water Temp Dewpoint Dewpoint Depression Visibility Wind Speed Wind Dir Waves Ship Positions

Leo Star I

Last reported at 2016-Nov-28 09:19 UTC. Time now 2016-Dec-03 09:36 UTC.
Position N 37°59' W 030°25'.

Length 157 m; draft 7 m.

Type: Cargo ship. MMSI: 636015065.

Date/timePositionNaut miles runAvg speedWind from/ knotsBaromVisibWave heightAir tempDewpointWater temp
2016-Nov-28 09:19N 37°59' W 030°25'1011.6
2016-Nov-28 08:25N 37°55' W 030°13'1011.9
2016-Nov-28 07:33N 37°50' W 030°01'1212.2
2016-Nov-28 06:33N 37°47' W 029°47'1211.9
2016-Nov-28 05:33N 37°44' W 029°32'1211.8
2016-Nov-28 04:33N 37°40' W 029°18'1212.0
2016-Nov-28 03:33N 37°37' W 029°03'1211.9
2016-Nov-28 02:33N 37°34' W 028°49'1211.8
2016-Nov-28 01:33N 37°31' W 028°35'1211.7
2016-Nov-28 00:33N 37°27' W 028°20'1211.6
2016-Nov-27 23:33N 37°24' W 028°06'1211.6
2016-Nov-27 22:33N 37°21' W 027°52'1211.6
2016-Nov-27 21:32N 37°18' W 027°38'1211.8
2016-Nov-27 20:32N 37°15' W 027°24'1212.0
2016-Nov-27 19:33N 37°11' W 027°10'1212.3
2016-Nov-27 18:33N 37°08' W 026°55'1211.9
2016-Nov-27 17:34N 37°05' W 026°40'1211.8
2016-Nov-27 16:33N 37°02' W 026°26'1211.5
2016-Nov-27 15:33N 36°57' W 026°13'1110.5
2016-Nov-27 14:33N 36°57' W 025°60'1110.9
2016-Nov-27 13:33N 36°54' W 025°47'1212.0
2016-Nov-27 12:33N 36°49' W 025°33'1212.1
2016-Nov-27 11:33N 36°44' W 025°20'1212.3
2016-Nov-27 10:33N 36°39' W 025°06'1212.2
2016-Nov-27 09:33N 36°37' W 024°51'1312.7
2016-Nov-27 08:33N 36°37' W 024°35'1312.6
2016-Nov-27 07:33N 36°38' W 024°19'1312.6
2016-Nov-27 06:33N 36°38' W 024°03'1212.3
2016-Nov-27 05:34N 36°38' W 023°48'1312.3
2016-Nov-27 04:30N 36°38' W 023°32'1312.3
2016-Nov-27 03:27N 36°39' W 023°16'  
2016-Nov-23 13:08N 36°22' W 002°42'911.2
2016-Nov-23 12:22N 36°23' W 002°31'1011.3
2016-Nov-23 11:27N 36°25' W 002°18'24712.4
2016-Nov-22 15:27N 37°07' E 002°46'55712.1
2016-Nov-20 17:33N 36°10' E 014°17'1313.2
2016-Nov-20 16:33N 36°02' E 014°30'15 7.7
2016-Nov-20 14:34N 35°52' E 014°45'0 0.1
2016-Nov-20 13:12N 35°52' E 014°45'0 0.1
2016-Nov-20 12:33N 35°53' E 014°45'0 0.0
2016-Nov-20 09:27N 35°53' E 014°45'0 0.0
2016-Nov-20 08:27N 35°53' E 014°45'0 0.0
2016-Nov-20 07:33N 35°53' E 014°45'0 0.0
2016-Nov-20 06:21N 35°53' E 014°45'0 0.0
2016-Nov-20 05:27N 35°53' E 014°45'0 0.0
2016-Nov-20 04:33N 35°53' E 014°45'0 0.0
2016-Nov-20 03:30N 35°53' E 014°45'0 0.0
2016-Nov-20 01:27N 35°52' E 014°45'0 0.0
2016-Nov-19 20:23N 35°52' E 014°45'0 0.1
2016-Nov-19 19:17N 35°52' E 014°45'0 0.0
2016-Nov-19 17:32N 35°52' E 014°45'0 0.2
2016-Nov-19 16:33N 35°52' E 014°45'0 0.1
2016-Nov-19 14:31N 35°53' E 014°45'0 0.0
2016-Nov-19 11:22N 35°53' E 014°45'0 0.0
2016-Nov-19 09:31N 35°53' E 014°45'0 0.0
2016-Nov-19 07:28N 35°52' E 014°45'0 0.0
2016-Nov-19 05:28N 35°53' E 014°45'0 0.0
2016-Nov-19 04:28N 35°52' E 014°45'0 0.0
2016-Nov-19 03:31N 35°52' E 014°45'0 0.1
2016-Nov-19 02:28N 35°52' E 014°45'0 0.0
2016-Nov-19 01:28N 35°52' E 014°45'0 0.0
2016-Nov-19 00:30N 35°52' E 014°45'0 0.0
2016-Nov-18 23:27N 35°52' E 014°45'7 2.3
2016-Nov-18 20:33N 35°46' E 014°45'  
Track history (hours):
 
Tides and Currents Weather Stations Pressure Air Temp Water Temp Dewpoint Dewpoint Depression Visibility Wind Speed Wind Dir Waves Ship Positions

Leo Star I

Last reported at 2016-Nov-28 09:19 UTC. Time now 2016-Dec-03 09:36 UTC.
Position N 37°59' W 030°25'.

Length 157 m; draft 7 m.

Type: Cargo ship. MMSI: 636015065.

Date/timePositionNaut miles runAvg speedWind from/ knotsBaromVisibWave heightAir tempDewpointWater temp
2016-Nov-28 09:19N 37°59' W 030°25'1011.6
2016-Nov-28 08:25N 37°55' W 030°13'1011.9
2016-Nov-28 07:33N 37°50' W 030°01'1212.2
2016-Nov-28 06:33N 37°47' W 029°47'1211.9
2016-Nov-28 05:33N 37°44' W 029°32'1211.8
2016-Nov-28 04:33N 37°40' W 029°18'1212.0
2016-Nov-28 03:33N 37°37' W 029°03'1211.9
2016-Nov-28 02:33N 37°34' W 028°49'1211.8
2016-Nov-28 01:33N 37°31' W 028°35'1211.7
2016-Nov-28 00:33N 37°27' W 028°20'1211.6
2016-Nov-27 23:33N 37°24' W 028°06'1211.6
2016-Nov-27 22:33N 37°21' W 027°52'1211.6
2016-Nov-27 21:32N 37°18' W 027°38'1211.8
2016-Nov-27 20:32N 37°15' W 027°24'1212.0
2016-Nov-27 19:33N 37°11' W 027°10'1212.3
2016-Nov-27 18:33N 37°08' W 026°55'1211.9
2016-Nov-27 17:34N 37°05' W 026°40'1211.8
2016-Nov-27 16:33N 37°02' W 026°26'1211.5
2016-Nov-27 15:33N 36°57' W 026°13'1110.5
2016-Nov-27 14:33N 36°57' W 025°60'1110.9
2016-Nov-27 13:33N 36°54' W 025°47'1212.0
2016-Nov-27 12:33N 36°49' W 025°33'1212.1
2016-Nov-27 11:33N 36°44' W 025°20'1212.3
2016-Nov-27 10:33N 36°39' W 025°06'1212.2
2016-Nov-27 09:33N 36°37' W 024°51'1312.7
2016-Nov-27 08:33N 36°37' W 024°35'1312.6
2016-Nov-27 07:33N 36°38' W 024°19'1312.6
2016-Nov-27 06:33N 36°38' W 024°03'1212.3
2016-Nov-27 05:34N 36°38' W 023°48'1312.3
2016-Nov-27 04:30N 36°38' W 023°32'1312.3
2016-Nov-27 03:27N 36°39' W 023°16'  
2016-Nov-23 13:08N 36°22' W 002°42'911.2
2016-Nov-23 12:22N 36°23' W 002°31'1011.3
2016-Nov-23 11:27N 36°25' W 002°18'24712.4
2016-Nov-22 15:27N 37°07' E 002°46'55712.1
2016-Nov-20 17:33N 36°10' E 014°17'1313.2
2016-Nov-20 16:33N 36°02' E 014°30'15 7.7
2016-Nov-20 14:34N 35°52' E 014°45'0 0.1
2016-Nov-20 13:12N 35°52' E 014°45'0 0.1
2016-Nov-20 12:33N 35°53' E 014°45'0 0.0
2016-Nov-20 09:27N 35°53' E 014°45'0 0.0
2016-Nov-20 08:27N 35°53' E 014°45'0 0.0
2016-Nov-20 07:33N 35°53' E 014°45'0 0.0
2016-Nov-20 06:21N 35°53' E 014°45'0 0.0
2016-Nov-20 05:27N 35°53' E 014°45'0 0.0
2016-Nov-20 04:33N 35°53' E 014°45'0 0.0
2016-Nov-20 03:30N 35°53' E 014°45'0 0.0
2016-Nov-20 01:27N 35°52' E 014°45'0 0.0
2016-Nov-19 20:23N 35°52' E 014°45'0 0.1
2016-Nov-19 19:17N 35°52' E 014°45'0 0.0
2016-Nov-19 17:32N 35°52' E 014°45'0 0.2
2016-Nov-19 16:33N 35°52' E 014°45'0 0.1
2016-Nov-19 14:31N 35°53' E 014°45'0 0.0
2016-Nov-19 11:22N 35°53' E 014°45'0 0.0
2016-Nov-19 09:31N 35°53' E 014°45'0 0.0
2016-Nov-19 07:28N 35°52' E 014°45'0 0.0
2016-Nov-19 05:28N 35°53' E 014°45'0 0.0
2016-Nov-19 04:28N 35°52' E 014°45'0 0.0
2016-Nov-19 03:31N 35°52' E 014°45'0 0.1
2016-Nov-19 02:28N 35°52' E 014°45'0 0.0
2016-Nov-19 01:28N 35°52' E 014°45'0 0.0
2016-Nov-19 00:30N 35°52' E 014°45'0 0.0
2016-Nov-18 23:27N 35°52' E 014°45'7 2.3
2016-Nov-18 20:33N 35°46' E 014°45'  

Dump ship's entire track history